Time;durP1;ratioP1;P1;durP2;ratioP2;P2;SDS_P1;SDS_P2;PMS_P1;PMS_P2;Temp;Humidity;BMP_temperature;BMP_pressure;BME280_temperature;BME280_humidity;BME280_pressure;Samples;Min_cycle;Max_cycle;Signal;HPM_P1;HPM_P2
2022/03/26 00:01:51;;;;;;;48.13;25.77;;;6.70;88.40;;;;;;5039503;28;20033;-73
2022/03/26 00:04:17;;;;;;;54.17;26.55;;;6.60;89.40;;;;;;5041837;28;20274;-73
2022/03/26 00:06:42;;;;;;;54.97;27.42;;;6.60;90.60;;;;;;5033208;28;20025;-73
2022/03/26 00:09:08;;;;;;;48.72;28.33;;;6.50;90.80;;;;;;5030134;28;20040;-75
2022/03/26 00:11:34;;;;;;;49.78;26.83;;;6.60;90.80;;;;;;5047062;28;20040;-73
2022/03/26 00:13:59;;;;;;;53.15;28.13;;;6.50;90.70;;;;;;5051088;28;20394;-74
2022/03/26 00:16:25;;;;;;;46.08;25.98;;;6.50;91.00;;;;;;5052014;28;20021;-73
2022/03/26 00:18:50;;;;;;;46.30;24.90;;;6.50;91.20;;;;;;5042701;28;20033;-73
2022/03/26 00:21:16;;;;;;;48.95;27.13;;;6.40;91.40;;;;;;5031252;28;20109;-73
2022/03/26 00:23:42;;;;;;;47.85;26.40;;;6.40;91.90;;;;;;5045103;28;20176;-73
2022/03/26 00:26:10;;;;;;;42.90;25.48;;;6.40;92.10;;;;;;5050702;28;20163;-75
2022/03/26 00:28:37;;;;;;;48.00;25.92;;;6.30;92.30;;;;;;5051807;28;20031;-74
2022/03/26 00:31:04;;;;;;;49.80;26.38;;;6.20;92.80;;;;;;5050232;28;20037;-74
2022/03/26 00:33:30;;;;;;;55.83;29.70;;;6.20;93.20;;;;;;5051846;28;20028;-74
2022/03/26 00:35:56;;;;;;;55.55;27.48;;;6.20;93.90;;;;;;5035967;28;20063;-70
2022/03/26 00:38:22;;;;;;;58.97;29.63;;;6.20;93.70;;;;;;5030188;28;20045;-74
2022/03/26 00:40:48;;;;;;;51.42;28.13;;;6.20;93.80;;;;;;5032785;28;20454;-74
2022/03/26 00:43:14;;;;;;;49.40;27.13;;;6.20;94.00;;;;;;5030841;28;20043;-74
2022/03/26 00:45:40;;;;;;;54.33;27.25;;;6.20;93.80;;;;;;5048197;28;20029;-73
2022/03/26 00:48:06;;;;;;;49.10;26.75;;;6.20;93.70;;;;;;5030960;28;20088;-73
2022/03/26 00:50:31;;;;;;;46.08;24.83;;;6.10;93.80;;;;;;5032065;28;20053;-73
2022/03/26 00:52:57;;;;;;;51.25;28.40;;;6.00;94.10;;;;;;5030086;28;20033;-71
2022/03/26 00:55:23;;;;;;;52.78;27.70;;;6.00;94.60;;;;;;5031656;28;20041;-73
2022/03/26 00:57:48;;;;;;;55.95;28.27;;;6.00;94.90;;;;;;5048622;28;20359;-74
2022/03/26 01:00:14;;;;;;;51.22;27.92;;;5.90;95.20;;;;;;5037359;28;20083;-73
2022/03/26 01:02:40;;;;;;;49.42;26.85;;;5.90;95.20;;;;;;5031938;28;20036;-73
2022/03/26 01:05:06;;;;;;;48.92;28.20;;;5.90;95.40;;;;;;5031558;28;20030;-75
2022/03/26 01:07:32;;;;;;;50.40;27.48;;;5.90;95.60;;;;;;5031104;28;20121;-72
2022/03/26 01:09:58;;;;;;;51.63;27.20;;;5.80;95.90;;;;;;5030994;28;20029;-70
2022/03/26 01:12:25;;;;;;;51.70;27.85;;;5.80;96.20;;;;;;5031236;28;20155;-74
2022/03/26 01:14:52;;;;;;;53.83;27.88;;;5.80;96.20;;;;;;5044947;28;20048;-73
2022/03/26 01:17:18;;;;;;;55.10;26.88;;;5.80;96.40;;;;;;5050618;28;20021;-73
2022/03/26 01:19:45;;;;;;;50.85;28.83;;;5.70;96.30;;;;;;5049726;28;20028;-73
2022/03/26 01:22:11;;;;;;;49.25;27.42;;;5.60;96.60;;;;;;5050501;28;20363;-74
2022/03/26 01:24:37;;;;;;;48.53;26.15;;;5.60;97.00;;;;;;5046089;28;20025;-73
2022/03/26 01:27:03;;;;;;;56.53;27.25;;;5.60;97.20;;;;;;5030648;28;20022;-74
2022/03/26 01:29:29;;;;;;;50.50;27.40;;;5.50;97.60;;;;;;5035026;28;20522;-72
2022/03/26 01:31:55;;;;;;;53.50;28.75;;;5.40;98.10;;;;;;5050860;28;20467;-73
2022/03/26 01:34:24;;;;;;;54.05;29.50;;;5.40;99.00;;;;;;5050398;28;20029;-72
2022/03/26 01:36:49;;;;;;;51.97;26.75;;;5.40;99.00;;;;;;5051121;28;20025;-72
2022/03/26 01:39:15;;;;;;;52.22;27.48;;;5.30;99.00;;;;;;5048599;28;20041;-73
2022/03/26 01:41:41;;;;;;;44.63;25.40;;;5.20;99.40;;;;;;5030076;28;20444;-73
2022/03/26 01:44:12;;;;;;;54.35;28.77;;;5.20;99.70;;;;;;5039633;28;20029;-73
2022/03/26 01:46:53;;;;;;;52.30;29.10;;;5.20;99.90;;;;;;5054859;28;20041;-73
2022/03/26 01:49:19;;;;;;;52.22;28.02;;;5.10;99.90;;;;;;5053924;28;20101;-73
2022/03/26 01:51:45;;;;;;;48.38;25.85;;;5.10;99.90;;;;;;5050468;28;20081;-73
2022/03/26 01:54:12;;;;;;;50.75;28.38;;;5.10;99.90;;;;;;5036455;28;20029;-73
2022/03/26 01:56:38;;;;;;;48.33;27.38;;;5.10;99.90;;;;;;5037334;28;20025;-73
2022/03/26 01:59:05;;;;;;;55.20;28.75;;;5.10;99.90;;;;;;5037010;28;20028;-73
2022/03/26 02:01:34;;;;;;;58.80;29.30;;;5.00;99.90;;;;;;5036383;28;20033;-74
2022/03/26 02:04:01;;;;;;;49.55;26.98;;;5.10;99.90;;;;;;5036451;28;20119;-70
2022/03/26 02:06:45;;;;;;;49.42;26.80;;;5.10;99.90;;;;;;5032397;28;20037;-73
2022/03/26 02:09:13;;;;;;;54.45;28.30;;;5.20;99.90;;;;;;5033728;28;20494;-74
2022/03/26 02:11:42;;;;;;;50.28;26.08;;;5.20;99.90;;;;;;5033256;28;20030;-74
2022/03/26 02:14:09;;;;;;;55.17;29.90;;;5.20;99.90;;;;;;5033371;28;20478;-74
2022/03/26 02:16:37;;;;;;;54.65;27.50;;;5.10;99.90;;;;;;5047689;28;20032;-73
2022/03/26 02:19:06;;;;;;;56.17;27.33;;;5.10;99.90;;;;;;5052759;28;20075;-69
2022/03/26 02:21:34;;;;;;;50.72;26.92;;;5.00;99.90;;;;;;5054061;28;20390;-73
2022/03/26 02:24:02;;;;;;;53.75;27.65;;;5.00;99.90;;;;;;5053886;28;20082;-70
2022/03/26 02:26:28;;;;;;;45.97;25.48;;;5.10;99.90;;;;;;5053988;28;20025;-73
2022/03/26 02:28:55;;;;;;;52.78;26.83;;;5.00;99.90;;;;;;5039764;28;20069;-72
2022/03/26 02:31:21;;;;;;;51.80;27.30;;;5.00;99.90;;;;;;5053441;28;20056;-73
2022/03/26 02:33:48;;;;;;;54.05;27.25;;;4.90;99.90;;;;;;5052489;28;20029;-74
2022/03/26 02:36:14;;;;;;;54.08;28.85;;;4.90;99.90;;;;;;5037761;28;20032;-74
2022/03/26 02:38:40;;;;;;;48.85;26.92;;;4.90;99.90;;;;;;5051944;28;20033;-74
2022/03/26 02:41:07;;;;;;;50.03;26.65;;;4.90;99.90;;;;;;5035066;28;20449;-74
2022/03/26 02:43:34;;;;;;;54.38;28.50;;;4.90;99.90;;;;;;5033912;28;20033;-74
2022/03/26 02:45:59;;;;;;;46.05;26.38;;;4.90;99.90;;;;;;5033272;28;20072;-70
2022/03/26 02:48:25;;;;;;;47.65;25.77;;;4.80;99.90;;;;;;5033065;28;20454;-73
2022/03/26 02:50:51;;;;;;;49.33;26.70;;;4.80;99.90;;;;;;5034123;28;20090;-73
2022/03/26 02:53:16;;;;;;;50.50;24.85;;;4.70;99.90;;;;;;5032914;28;20144;-75
2022/03/26 02:55:42;;;;;;;45.50;25.08;;;4.70;99.90;;;;;;5032184;28;20037;-75
2022/03/26 02:58:09;;;;;;;46.47;26.85;;;4.60;99.90;;;;;;5032786;28;20029;-75
2022/03/26 03:00:36;;;;;;;48.42;25.08;;;4.50;99.90;;;;;;5046419;28;20043;-75
2022/03/26 03:03:02;;;;;;;53.08;27.00;;;4.40;99.90;;;;;;5045552;28;20064;-71
2022/03/26 03:05:28;;;;;;;54.75;27.70;;;4.40;99.90;;;;;;5033628;28;20087;-75
2022/03/26 03:07:54;;;;;;;53.97;28.00;;;4.50;99.90;;;;;;5033386;28;20467;-75
2022/03/26 03:10:20;;;;;;;47.45;25.58;;;4.50;99.90;;;;;;5044285;28;20041;-74
2022/03/26 03:12:47;;;;;;;51.05;26.10;;;4.50;99.90;;;;;;5040490;28;20033;-74
2022/03/26 03:15:13;;;;;;;52.10;27.10;;;4.50;99.90;;;;;;5031466;28;20421;-74
2022/03/26 03:17:41;;;;;;;53.03;26.52;;;4.50;99.90;;;;;;5033456;28;20029;-75
2022/03/26 03:20:09;;;;;;;53.33;26.73;;;4.50;99.90;;;;;;5045774;28;20049;-72
2022/03/26 03:22:35;;;;;;;54.67;26.23;;;4.50;99.90;;;;;;5052702;28;20423;-73
2022/03/26 03:25:01;;;;;;;48.72;26.20;;;4.50;99.90;;;;;;5040382;28;20033;-71
2022/03/26 03:27:26;;;;;;;47.40;25.88;;;4.50;99.90;;;;;;5032114;28;20105;-74
2022/03/26 03:29:52;;;;;;;51.67;25.10;;;4.50;99.90;;;;;;5044404;28;20466;-74
2022/03/26 03:32:18;;;;;;;47.92;25.20;;;4.40;99.90;;;;;;5050821;28;20390;-75
2022/03/26 03:34:44;;;;;;;47.95;25.98;;;4.40;99.90;;;;;;5052644;28;20068;-75
2022/03/26 03:37:10;;;;;;;49.33;25.88;;;4.30;99.90;;;;;;5035884;28;20069;-75
2022/03/26 03:39:35;;;;;;;49.28;24.95;;;4.30;99.90;;;;;;5032477;28;20430;-74
2022/03/26 03:42:02;;;;;;;53.42;26.90;;;4.20;99.90;;;;;;5031272;28;20041;-71
2022/03/26 03:44:28;;;;;;;45.67;25.05;;;4.20;99.90;;;;;;5039357;28;20021;-74
2022/03/26 03:46:53;;;;;;;49.10;24.48;;;4.10;99.90;;;;;;5052604;28;20074;-73
2022/03/26 03:49:20;;;;;;;49.65;23.88;;;4.10;99.90;;;;;;5050352;28;20056;-74
2022/03/26 03:51:46;;;;;;;45.75;23.80;;;4.10;99.90;;;;;;5052252;28;20497;-74
2022/03/26 03:54:12;;;;;;;47.65;24.50;;;4.20;99.90;;;;;;5051123;28;20154;-73
2022/03/26 03:56:38;;;;;;;48.30;25.33;;;4.20;99.90;;;;;;5048289;28;20101;-74
2022/03/26 03:59:03;;;;;;;52.55;26.15;;;4.20;99.90;;;;;;5035709;28;20020;-70
2022/03/26 04:01:29;;;;;;;44.75;25.40;;;4.20;99.90;;;;;;5042710;28;20033;-72
2022/03/26 04:03:55;;;;;;;46.90;24.17;;;4.20;99.90;;;;;;5040009;28;20155;-72
2022/03/26 04:06:20;;;;;;;47.78;24.75;;;4.20;99.90;;;;;;5038719;28;20108;-74
2022/03/26 04:08:46;;;;;;;48.80;25.67;;;4.10;99.90;;;;;;5038593;28;20064;-72
2022/03/26 04:11:12;;;;;;;50.10;26.63;;;4.10;99.90;;;;;;5040851;28;20033;-73
2022/03/26 04:13:38;;;;;;;50.83;25.10;;;4.10;99.90;;;;;;5040982;28;20518;-73
2022/03/26 04:16:04;;;;;;;44.70;24.67;;;4.00;99.90;;;;;;5040006;28;20421;-70
2022/03/26 04:18:30;;;;;;;48.92;25.23;;;3.90;99.90;;;;;;5039988;28;20028;-73
2022/03/26 04:20:56;;;;;;;55.42;25.35;;;3.90;99.90;;;;;;5041247;28;20074;-72
2022/03/26 04:23:23;;;;;;;50.50;26.73;;;3.80;99.90;;;;;;5038880;28;20033;-74
2022/03/26 04:25:49;;;;;;;49.33;25.45;;;3.80;99.90;;;;;;5024450;28;20034;-73
2022/03/26 04:28:15;;;;;;;51.95;26.50;;;3.70;99.90;;;;;;5039240;28;20031;-71
2022/03/26 04:30:40;;;;;;;51.65;24.67;;;3.70;99.90;;;;;;5041780;28;20037;-74
2022/03/26 04:33:06;;;;;;;51.75;27.13;;;3.60;99.90;;;;;;5041657;28;20028;-71
2022/03/26 04:35:33;;;;;;;53.45;27.20;;;3.60;99.90;;;;;;5050995;28;20455;-73
2022/03/26 04:37:59;;;;;;;48.40;26.50;;;3.60;99.90;;;;;;5052021;28;20352;-74
2022/03/26 04:40:26;;;;;;;46.95;26.05;;;3.60;99.90;;;;;;5050478;28;20088;-74
2022/03/26 04:42:52;;;;;;;47.90;25.42;;;3.50;99.90;;;;;;5051464;28;20064;-73
2022/03/26 04:45:18;;;;;;;48.58;24.90;;;3.50;99.90;;;;;;5050920;28;20067;-73
2022/03/26 04:47:44;;;;;;;42.40;24.38;;;3.40;99.90;;;;;;5042947;28;20025;-73
2022/03/26 04:50:11;;;;;;;49.42;24.60;;;3.40;99.90;;;;;;5030922;28;20057;-73
2022/03/26 04:52:37;;;;;;;51.33;25.75;;;3.40;99.90;;;;;;5031400;28;20485;-74
2022/03/26 04:55:04;;;;;;;55.58;26.35;;;3.30;99.90;;;;;;5031689;28;20025;-74
2022/03/26 04:57:29;;;;;;;49.33;25.52;;;3.30;99.90;;;;;;5037732;28;20028;-74
2022/03/26 04:59:55;;;;;;;49.72;26.10;;;3.30;99.90;;;;;;5049891;28;20025;-74
2022/03/26 05:02:21;;;;;;;45.00;24.65;;;3.20;99.90;;;;;;5050871;28;20040;-74
2022/03/26 05:04:47;;;;;;;53.65;27.65;;;3.20;99.90;;;;;;5051718;28;20064;-74
2022/03/26 05:09:56;;;;;;;51.38;25.20;;;3.10;99.90;;;;;;5038877;28;20537;-75
2022/03/26 05:12:22;;;;;;;51.88;25.55;;;3.10;99.90;;;;;;5030724;28;20025;-74
2022/03/26 05:14:48;;;;;;;51.22;26.05;;;3.10;99.90;;;;;;5034496;28;20029;-74
2022/03/26 05:17:13;;;;;;;46.60;24.58;;;3.10;99.90;;;;;;5045917;28;20029;-74
2022/03/26 05:19:39;;;;;;;50.65;26.17;;;3.00;99.90;;;;;;5035167;28;20021;-74
2022/03/26 05:22:05;;;;;;;49.72;27.40;;;3.00;99.90;;;;;;5049151;28;20486;-70
2022/03/26 05:24:33;;;;;;;48.45;25.23;;;3.00;99.90;;;;;;5054504;28;20159;-73
2022/03/26 05:26:59;;;;;;;50.95;26.38;;;3.00;99.90;;;;;;5055726;28;20021;-73
2022/03/26 05:29:24;;;;;;;43.67;24.83;;;3.00;99.90;;;;;;5055277;28;20040;-74
2022/03/26 05:31:51;;;;;;;45.38;25.65;;;3.00;99.90;;;;;;5043913;28;20495;-75
2022/03/26 05:34:17;;;;;;;43.95;24.00;;;3.00;99.90;;;;;;5052532;28;20060;-72
2022/03/26 05:36:42;;;;;;;50.75;25.85;;;2.90;99.90;;;;;;5055561;28;20060;-72
2022/03/26 05:39:08;;;;;;;50.83;27.65;;;2.90;99.90;;;;;;5055873;28;20033;-70
2022/03/26 05:41:34;;;;;;;45.00;25.65;;;2.90;99.90;;;;;;5057127;28;20036;-73
2022/03/26 05:44:00;;;;;;;46.50;25.65;;;3.00;99.90;;;;;;5047440;28;20024;-73
2022/03/26 05:46:26;;;;;;;54.72;27.83;;;3.00;99.90;;;;;;5047565;28;20040;-73
2022/03/26 05:48:51;;;;;;;47.05;25.10;;;3.10;99.90;;;;;;5042020;28;20045;-74
2022/03/26 05:51:17;;;;;;;49.65;26.15;;;3.10;99.90;;;;;;5034116;28;20037;-73
2022/03/26 05:53:44;;;;;;;49.00;25.00;;;3.10;99.90;;;;;;5033931;28;20021;-74
2022/03/26 05:56:10;;;;;;;47.70;25.48;;;3.10;99.90;;;;;;5034087;28;20026;-71
2022/03/26 05:58:35;;;;;;;49.17;25.52;;;3.10;99.90;;;;;;5033322;28;20030;-74
2022/03/26 06:01:01;;;;;;;50.97;26.13;;;3.20;99.90;;;;;;5034585;28;20040;-73
2022/03/26 06:03:28;;;;;;;51.63;26.75;;;3.20;99.90;;;;;;5034434;28;20033;-75
2022/03/26 06:05:53;;;;;;;51.58;26.23;;;3.30;99.90;;;;;;5054695;28;20053;-71
2022/03/26 06:08:19;;;;;;;48.45;26.48;;;3.40;99.90;;;;;;5054418;28;20119;-77
2022/03/26 06:10:45;;;;;;;56.40;28.25;;;3.40;99.90;;;;;;5055386;28;20122;-74
2022/03/26 06:13:10;;;;;;;50.42;26.15;;;3.50;99.90;;;;;;5053737;28;20036;-75
2022/03/26 06:15:37;;;;;;;53.17;27.00;;;3.60;99.90;;;;;;5051607;28;20026;-74
2022/03/26 06:18:03;;;;;;;48.17;25.45;;;3.70;99.90;;;;;;5051029;28;20091;-75
2022/03/26 06:20:29;;;;;;;50.88;26.55;;;3.80;99.90;;;;;;5052901;28;20040;-74
2022/03/26 06:22:55;;;;;;;54.80;27.17;;;3.80;99.90;;;;;;5049063;28;20029;-74
2022/03/26 06:25:21;;;;;;;46.45;25.10;;;3.90;99.90;;;;;;5033470;28;20425;-73
2022/03/26 06:27:48;;;;;;;54.20;26.75;;;4.00;99.90;;;;;;5040214;28;20482;-74
2022/03/26 06:30:14;;;;;;;49.28;27.10;;;4.10;99.90;;;;;;5053305;28;20029;-72
2022/03/26 06:32:40;;;;;;;53.50;27.85;;;4.20;99.90;;;;;;5054081;28;20585;-72
2022/03/26 06:35:06;;;;;;;50.15;28.63;;;4.30;99.90;;;;;;5047460;28;20030;-73
2022/03/26 06:37:32;;;;;;;50.53;27.65;;;4.30;99.90;;;;;;5033486;28;20068;-74
2022/03/26 06:39:58;;;;;;;52.03;28.88;;;4.40;99.90;;;;;;5043932;28;20168;-73
2022/03/26 06:42:25;;;;;;;48.53;26.80;;;4.50;99.90;;;;;;5053081;28;20115;-72
2022/03/26 06:44:51;;;;;;;55.35;29.58;;;4.60;99.90;;;;;;5046412;28;20460;-75
2022/03/26 06:47:17;;;;;;;51.67;28.63;;;4.70;99.90;;;;;;5052986;28;20025;-71
2022/03/26 06:49:43;;;;;;;53.78;30.50;;;4.80;99.90;;;;;;5045174;28;20046;-72
2022/03/26 06:52:09;;;;;;;60.45;30.92;;;4.90;99.90;;;;;;5033069;28;20025;-68
2022/03/26 06:54:34;;;;;;;57.42;29.38;;;5.10;99.90;;;;;;5033084;28;20457;-71
2022/03/26 06:57:00;;;;;;;58.28;30.48;;;5.20;99.90;;;;;;5033527;28;20026;-69
2022/03/26 06:59:26;;;;;;;50.75;28.52;;;5.30;99.90;;;;;;5032907;28;20056;-69
2022/03/26 07:01:52;;;;;;;54.50;28.55;;;5.50;99.90;;;;;;5042960;28;20044;-70
2022/03/26 07:04:18;;;;;;;51.67;28.30;;;5.60;99.90;;;;;;5052556;28;20025;-73
2022/03/26 07:06:43;;;;;;;52.88;27.88;;;5.70;99.90;;;;;;5052606;28;20025;-73
2022/03/26 07:09:09;;;;;;;55.13;30.15;;;5.80;99.90;;;;;;5052688;28;20029;-69
2022/03/26 07:11:35;;;;;;;61.65;28.77;;;6.00;99.90;;;;;;5052197;28;20029;-74
2022/03/26 07:14:01;;;;;;;49.72;27.23;;;6.10;99.90;;;;;;5040731;28;20040;-74
2022/03/26 07:16:26;;;;;;;48.30;26.17;;;6.20;99.90;;;;;;5032287;28;20037;-71
2022/03/26 07:18:52;;;;;;;55.50;27.55;;;6.20;99.60;;;;;;5033476;28;20034;-70
2022/03/26 07:21:18;;;;;;;54.47;27.70;;;6.30;99.10;;;;;;5032033;28;20363;-69
2022/03/26 07:23:44;;;;;;;50.45;27.20;;;6.40;98.20;;;;;;5032882;28;20077;-70
2022/03/26 07:26:09;;;;;;;46.42;25.40;;;6.70;96.30;;;;;;5043967;28;20071;-70
2022/03/26 07:28:35;;;;;;;54.60;26.73;;;6.80;95.30;;;;;;5050096;28;20021;-71
2022/03/26 07:31:01;;;;;;;58.85;26.85;;;6.90;95.40;;;;;;5033134;28;20041;-71
2022/03/26 07:33:27;;;;;;;49.50;26.73;;;7.00;95.00;;;;;;5030955;28;20455;-72
2022/03/26 07:35:53;;;;;;;51.53;28.52;;;7.10;94.80;;;;;;5032846;28;20033;-71
2022/03/26 07:38:18;;;;;;;47.63;26.40;;;7.10;94.40;;;;;;5044976;28;20477;-71
2022/03/26 07:40:44;;;;;;;46.17;26.45;;;7.20;94.20;;;;;;5051607;28;20025;-70
2022/03/26 07:43:10;;;;;;;51.65;28.38;;;7.30;94.20;;;;;;5052003;28;20095;-69
2022/03/26 07:45:35;;;;;;;52.30;27.92;;;7.40;94.30;;;;;;5046556;28;20100;-74
2022/03/26 07:48:02;;;;;;;52.35;29.67;;;7.60;93.40;;;;;;5041243;28;20026;-72
2022/03/26 07:50:28;;;;;;;45.03;26.75;;;7.70;93.10;;;;;;5038684;28;20443;-74
2022/03/26 07:52:53;;;;;;;48.70;26.75;;;7.80;93.00;;;;;;5038208;28;20124;-75
2022/03/26 07:55:20;;;;;;;46.38;26.52;;;7.80;92.00;;;;;;5031616;28;20030;-74
2022/03/26 07:57:46;;;;;;;59.00;28.45;;;7.90;91.90;;;;;;5032975;28;20036;-75
2022/03/26 08:00:12;;;;;;;50.42;28.77;;;8.10;92.10;;;;;;5032116;28;20025;-71
2022/03/26 08:02:38;;;;;;;52.58;28.33;;;8.20;91.60;;;;;;5032109;28;20090;-76
2022/03/26 08:05:04;;;;;;;51.50;28.25;;;8.30;90.70;;;;;;5032394;28;20108;-74
2022/03/26 08:07:30;;;;;;;56.60;28.35;;;8.40;90.50;;;;;;5038823;28;20577;-76
2022/03/26 08:09:56;;;;;;;50.45;27.65;;;8.60;89.40;;;;;;5042097;28;20092;-73
2022/03/26 08:12:22;;;;;;;46.40;27.40;;;8.70;87.60;;;;;;5040446;28;20032;-73
2022/03/26 08:14:48;;;;;;;48.40;25.40;;;8.70;87.70;;;;;;5043997;28;20407;-74
2022/03/26 08:17:14;;;;;;;44.35;25.75;;;8.90;83.40;;;;;;5042891;28;20037;-75
2022/03/26 08:19:40;;;;;;;52.63;27.17;;;9.00;83.50;;;;;;5041741;28;20032;-75
2022/03/26 08:22:06;;;;;;;52.03;27.33;;;9.00;82.80;;;;;;5036959;28;20030;-75
2022/03/26 08:24:32;;;;;;;49.60;26.50;;;9.10;83.00;;;;;;5040472;28;20025;-74
2022/03/26 08:26:58;;;;;;;49.70;27.40;;;9.30;80.10;;;;;;5051819;28;20029;-65
2022/03/26 08:29:24;;;;;;;52.92;29.50;;;9.40;79.10;;;;;;5051145;28;20025;-76
2022/03/26 08:31:50;;;;;;;54.22;27.95;;;9.60;78.80;;;;;;5034129;28;20039;-75
2022/03/26 08:34:18;;;;;;;47.20;27.40;;;9.60;79.30;;;;;;5030402;28;20028;-69
2022/03/26 08:36:44;;;;;;;44.70;26.30;;;9.70;78.70;;;;;;5031003;28;20032;-76
2022/03/26 08:39:10;;;;;;;50.00;27.40;;;9.80;78.20;;;;;;5046173;28;20028;-71
2022/03/26 08:41:36;;;;;;;50.88;25.48;;;9.90;75.30;;;;;;5056413;28;20074;-75
2022/03/26 08:44:01;;;;;;;50.35;26.33;;;10.10;73.60;;;;;;5047011;28;20493;-73
2022/03/26 08:46:27;;;;;;;48.95;26.33;;;10.20;73.00;;;;;;5039900;28;20036;-69
2022/03/26 08:48:53;;;;;;;50.15;26.75;;;10.30;71.90;;;;;;5050467;28;20055;-71
2022/03/26 08:51:19;;;;;;;54.38;26.77;;;10.40;70.30;;;;;;5033661;28;20057;-70
2022/03/26 08:53:45;;;;;;;46.90;25.92;;;10.40;70.20;;;;;;5034755;28;20061;-72
2022/03/26 08:56:11;;;;;;;46.20;25.55;;;10.50;70.10;;;;;;5049564;28;20036;-70
2022/03/26 08:58:37;;;;;;;50.40;26.92;;;10.50;70.70;;;;;;5055160;28;20489;-75
2022/03/26 09:01:04;;;;;;;51.92;28.23;;;10.60;70.00;;;;;;5054834;28;20064;-77
2022/03/26 09:03:30;;;;;;;51.40;28.67;;;10.80;70.00;;;;;;5038451;28;20796;-72
2022/03/26 09:05:57;;;;;;;48.22;27.00;;;10.90;68.70;;;;;;5034567;28;20035;-71
2022/03/26 09:08:23;;;;;;;53.95;29.17;;;11.00;68.60;;;;;;5033760;28;20061;-73
2022/03/26 09:10:48;;;;;;;47.75;27.08;;;11.00;68.80;;;;;;5034298;28;20114;-71
2022/03/26 09:13:15;;;;;;;54.42;27.65;;;11.20;69.00;;;;;;5033689;28;20025;-72
2022/03/26 09:15:41;;;;;;;51.47;26.48;;;11.30;67.60;;;;;;5050651;28;20032;-72
2022/03/26 09:18:06;;;;;;;49.15;27.10;;;11.40;67.90;;;;;;5054373;28;20556;-76
2022/03/26 09:20:33;;;;;;;53.25;29.30;;;11.50;67.40;;;;;;5053839;28;20033;-77
2022/03/26 09:22:58;;;;;;;47.45;27.10;;;11.60;67.40;;;;;;5054166;28;20526;-77
2022/03/26 09:25:24;;;;;;;53.67;29.13;;;11.70;67.30;;;;;;5047615;28;20117;-77
2022/03/26 09:27:50;;;;;;;52.30;28.23;;;11.80;66.70;;;;;;5032653;28;20128;-75
2022/03/26 09:30:17;;;;;;;50.40;28.60;;;11.90;66.30;;;;;;5033350;28;20144;-73
2022/03/26 09:32:44;;;;;;;50.03;27.73;;;12.00;66.30;;;;;;5034096;28;20025;-75
2022/03/26 09:35:11;;;;;;;53.83;29.45;;;12.10;65.80;;;;;;5036272;28;20107;-73
2022/03/26 09:37:38;;;;;;;55.47;31.42;;;12.20;65.90;;;;;;5053613;28;20496;-71
2022/03/26 09:40:04;;;;;;;49.75;28.75;;;12.50;81.70;;;;;;5053696;28;20021;-72
2022/03/26 09:42:32;;;;;;;51.08;29.27;;;12.60;66.20;;;;;;5046000;28;20056;-73
2022/03/26 09:44:58;;;;;;;49.90;29.60;;;12.60;64.10;;;;;;5040283;28;20111;-72
2022/03/26 09:47:24;;;;;;;51.22;28.05;;;12.60;64.50;;;;;;5047054;28;20016;-73
2022/03/26 09:49:50;;;;;;;51.08;28.88;;;12.60;64.50;;;;;;5043435;28;20049;-72
2022/03/26 09:52:16;;;;;;;53.70;29.45;;;12.80;64.80;;;;;;5041743;28;20116;-70
2022/03/26 09:54:43;;;;;;;45.65;27.80;;;13.00;63.90;;;;;;5049152;28;20104;-71
2022/03/26 09:57:09;;;;;;;54.70;29.58;;;13.00;63.90;;;;;;5039005;28;20025;-69
2022/03/26 09:59:35;;;;;;;53.80;29.75;;;13.30;63.60;;;;;;5041617;28;20037;-72
2022/03/26 10:02:02;;;;;;;52.17;29.70;;;13.50;67.50;;;;;;5027673;28;20037;-72
2022/03/26 10:04:39;;;;;;;49.35;27.85;;;13.50;62.40;;;;;;5042358;28;20509;-71
2022/03/26 10:07:07;;;;;;;55.67;29.83;;;13.60;61.30;;;;;;5044367;28;20033;-71
2022/03/26 10:09:36;;;;;;;51.65;29.88;;;13.80;61.40;;;;;;5044082;28;20112;-72
2022/03/26 10:12:26;;;;;;;50.20;29.85;;;14.00;61.70;;;;;;5053219;28;20025;-69
2022/03/26 10:14:52;;;;;;;46.80;28.95;;;14.00;61.30;;;;;;5053362;28;20021;-71
2022/03/26 10:17:30;;;;;;;54.72;29.92;;;14.10;60.90;;;;;;5052841;28;20036;-70
2022/03/26 10:19:58;;;;;;;56.05;30.60;;;14.30;59.50;;;;;;5034790;28;20037;-73
2022/03/26 10:22:34;;;;;;;50.45;29.65;;;14.50;59.00;;;;;;5034525;28;20060;-75
2022/03/26 10:25:04;;;;;;;56.38;30.77;;;14.60;58.90;;;;;;5052210;28;20029;-73
2022/03/26 10:27:38;;;;;;;57.17;30.50;;;14.90;67.00;;;;;;5040771;28;20375;-73
2022/03/26 10:30:05;;;;;;;55.38;30.70;;;;;;;;;;5015962;28;20040;-69
2022/03/26 10:32:39;;;;;;;49.38;29.25;;;15.10;57.40;;;;;;5037333;28;20405;-73
2022/03/26 10:35:25;;;;;;;50.00;30.55;;;15.40;66.10;;;;;;5037252;28;20037;-73
2022/03/26 10:38:02;;;;;;;54.00;31.13;;;15.70;74.80;;;;;;5043208;28;20044;-73
2022/03/26 10:40:33;;;;;;;54.42;30.13;;;15.70;78.30;;;;;;5042415;28;20036;-73
2022/03/26 10:43:02;;;;;;;50.15;30.10;;;15.70;53.80;;;;;;5042006;28;20029;-72
2022/03/26 10:45:30;;;;;;;56.63;29.93;;;15.70;54.50;;;;;;5041163;28;20033;-72
2022/03/26 10:47:57;;;;;;;52.45;29.70;;;15.80;53.80;;;;;;5041417;28;20040;-71
2022/03/26 10:50:25;;;;;;;49.65;30.15;;;16.00;52.90;;;;;;5040593;28;20051;-73
2022/03/26 10:52:54;;;;;;;49.35;29.08;;;16.20;53.50;;;;;;5036465;28;20088;-73
2022/03/26 10:55:21;;;;;;;47.50;28.50;;;16.30;52.00;;;;;;5034741;28;20040;-73
2022/03/26 10:57:48;;;;;;;48.20;29.67;;;16.40;49.80;;;;;;5032929;28;20157;-73
2022/03/26 11:00:15;;;;;;;50.58;28.42;;;16.60;50.40;;;;;;5039978;28;20037;-73
2022/03/26 11:02:42;;;;;;;49.63;27.52;;;16.70;49.00;;;;;;5031524;28;20546;-73
2022/03/26 11:05:08;;;;;;;53.55;28.35;;;16.90;48.10;;;;;;5032374;28;20072;-73
2022/03/26 11:07:37;;;;;;;50.63;28.45;;;17.00;48.10;;;;;;5031275;28;20022;-73
2022/03/26 11:10:07;;;;;;;49.17;29.45;;;17.20;48.20;;;;;;5039508;28;20025;-73
2022/03/26 11:12:35;;;;;;;42.88;27.20;;;17.40;46.60;;;;;;5051417;28;20017;-72
2022/03/26 11:15:04;;;;;;;42.30;26.80;;;17.60;46.40;;;;;;5046701;28;20037;-73
2022/03/26 11:17:57;;;;;;;46.22;28.98;;;17.60;45.70;;;;;;5030820;28;20140;-73
2022/03/26 11:20:54;;;;;;;45.65;29.17;;;18.00;46.40;;;;;;5041481;28;20385;-73
2022/03/26 11:23:51;;;;;;;45.05;27.58;;;18.10;45.80;;;;;;5045031;28;20049;-70
2022/03/26 11:26:36;;;;;;;46.08;28.23;;;18.20;45.70;;;;;;5050985;28;20032;-69
2022/03/26 11:29:26;;;;;;;47.75;28.65;;;18.40;46.00;;;;;;5047000;28;20367;-69
2022/03/26 11:32:06;;;;;;;49.92;28.83;;;18.60;44.20;;;;;;5050579;28;20178;-73
2022/03/26 11:34:37;;;;;;;52.55;28.85;;;18.80;43.60;;;;;;5050472;28;20111;-73
2022/03/26 11:37:13;;;;;;;44.80;27.85;;;18.90;43.60;;;;;;5051655;28;20060;-73
2022/03/26 11:39:47;;;;;;;43.13;27.90;;;19.00;43.20;;;;;;5045481;28;20096;-73
2022/03/26 11:42:13;;;;;;;42.78;26.83;;;19.20;42.80;;;;;;5037141;28;20035;-73
2022/03/26 11:50:40;;;;;;;40.15;26.30;;;19.40;42.40;;;;;;5046485;28;20053;-73
2022/03/26 11:53:33;;;;;;;34.85;24.17;;;20.10;64.90;;;;;;5031407;28;20105;-73
2022/03/26 11:56:01;;;;;;;35.55;22.58;;;20.10;68.60;;;;;;5023612;28;20041;-73
2022/03/26 11:58:28;;;;;;;35.83;23.90;;;20.10;70.10;;;;;;5030404;28;20032;-72
2022/03/26 12:00:53;;;;;;;41.72;26.67;;;20.20;71.00;;;;;;5045485;28;20039;-73
2022/03/26 12:03:24;;;;;;;40.88;24.63;;;20.40;71.20;;;;;;5045819;28;20037;-70
2022/03/26 12:08:55;;;;;;;37.20;23.70;;;20.80;39.50;;;;;;5051986;28;20497;-72
2022/03/26 12:11:25;;;;;;;37.40;24.75;;;21.00;38.70;;;;;;5049897;28;20051;-70
2022/03/26 12:14:04;;;;;;;31.88;22.90;;;20.70;37.90;;;;;;5050963;28;20111;-73
2022/03/26 12:16:48;;;;;;;36.05;23.42;;;20.30;39.00;;;;;;5049705;28;20032;-73
2022/03/26 12:19:41;;;;;;;35.30;21.80;;;20.20;38.10;;;;;;5050325;28;20033;-73
2022/03/26 12:22:26;;;;;;;32.22;21.40;;;20.20;37.60;;;;;;5050641;28;20120;-73
2022/03/26 12:24:56;;;;;;;30.38;20.02;;;20.10;37.50;;;;;;5050236;28;20482;-73
2022/03/26 12:27:23;;;;;;;;;;;20.20;37.60;;;;;;5050074;28;20027;-70
2022/03/26 12:29:49;;;;;;;33.20;18.85;;;20.40;38.00;;;;;;5043427;28;19909;-73
2022/03/26 12:32:18;;;;;;;30.20;19.02;;;20.40;36.80;;;;;;5030748;28;20470;-73
2022/03/26 12:34:55;;;;;;;31.33;17.73;;;20.60;35.90;;;;;;5042679;28;20036;-73
2022/03/26 12:37:23;;;;;;;31.95;20.13;;;20.80;36.60;;;;;;5049839;28;20025;-71
2022/03/26 12:39:49;;;;;;;30.08;19.92;;;20.90;35.80;;;;;;5043339;28;20037;-73
2022/03/26 12:42:15;;;;;;;31.88;19.90;;;21.20;35.50;;;;;;5032619;28;20109;-72
2022/03/26 12:44:41;;;;;;;31.17;19.65;;;21.60;34.50;;;;;;5040580;28;20097;-72
2022/03/26 12:47:07;;;;;;;26.00;18.58;;;21.90;33.80;;;;;;5030613;28;20459;-73